Time;durP1;ratioP1;P1;durP2;ratioP2;P2;SDS_P1;SDS_P2;PMS_P1;PMS_P2;Temp;Humidity;BMP_temperature;BMP_pressure;BME280_temperature;BME280_humidity;BME280_pressure;Samples;Min_cycle;Max_cycle;Signal;HPM_P1;HPM_P2
2023/02/02 00:01:50;;;;;;;0.60;0.60;;;4.50;99.90;;;;;;5045872;28;20090;-84
2023/02/02 00:04:21;;;;;;;0.60;0.60;;;4.50;99.90;;;;;;5052174;28;20490;-83
2023/02/02 00:06:48;;;;;;;0.60;0.60;;;4.60;99.90;;;;;;5042595;28;20037;-83
2023/02/02 00:09:16;;;;;;;0.73;0.73;;;4.40;99.90;;;;;;5045056;28;20123;-87
2023/02/02 00:11:43;;;;;;;2.80;2.70;;;4.30;99.90;;;;;;5041702;28;20049;-87
2023/02/02 00:14:09;;;;;;;0.50;0.50;;;4.30;99.90;;;;;;5047109;28;20086;-83
2023/02/02 00:16:36;;;;;;;;;;;4.60;99.90;;;;;;5028765;28;20038;-83
2023/02/02 00:19:25;;;;;;;0.65;0.65;;;4.30;99.90;;;;;;5031263;28;19928;-84
2023/02/02 00:21:52;;;;;;;1.35;1.27;;;4.30;99.90;;;;;;5028835;28;20036;-86
2023/02/02 00:24:18;;;;;;;3.78;1.35;;;4.20;99.90;;;;;;5030556;28;20168;-84
2023/02/02 00:26:44;;;;;;;;;;;4.80;99.90;;;;;;5043480;28;20049;-85
2023/02/02 00:29:18;;;;;;;0.60;0.60;;;5.00;99.90;;;;;;5042508;28;19917;-88
2023/02/02 00:31:44;;;;;;;0.52;0.52;;;4.20;99.90;;;;;;5042331;28;20037;-86
2023/02/02 00:34:12;;;;;;;0.70;0.70;;;5.10;99.90;;;;;;5030540;28;20540;-84
2023/02/02 00:36:38;;;;;;;2.38;0.98;;;4.20;99.90;;;;;;5043816;28;20103;-84
2023/02/02 00:39:04;;;;;;;;;;;4.20;99.90;;;;;;5040895;28;20033;-85
2023/02/02 00:41:30;;;;;;;0.60;0.60;;;4.20;99.90;;;;;;5043459;28;20285;-85
2023/02/02 00:46:40;;;;;;;0.70;0.70;;;4.30;99.90;;;;;;5043055;28;20405;-85
2023/02/02 00:49:07;;;;;;;0.60;0.60;;;4.30;99.90;;;;;;5027683;28;20042;-87
2023/02/02 00:51:33;;;;;;;0.57;0.57;;;4.40;99.90;;;;;;5046292;28;20049;-88
2023/02/02 00:53:59;;;;;;;;;;;4.70;99.90;;;;;;5046426;28;20115;-85
2023/02/02 00:56:24;;;;;;;0.50;0.50;;;4.50;99.90;;;;;;5049969;28;19980;-86
2023/02/02 00:58:50;;;;;;;0.52;0.52;;;4.50;99.90;;;;;;5033581;28;20095;-86
2023/02/02 01:01:19;;;;;;;0.50;0.50;;;4.60;99.90;;;;;;5039807;28;20030;-85
2023/02/02 01:03:45;;;;;;;0.60;0.60;;;4.50;99.90;;;;;;5046019;28;20045;-86
2023/02/02 01:06:11;;;;;;;0.60;0.60;;;4.60;99.90;;;;;;5051318;28;20037;-86
2023/02/02 01:08:37;;;;;;;0.50;0.50;;;4.60;99.90;;;;;;5055749;28;20371;-84
2023/02/02 01:11:04;;;;;;;0.70;0.70;;;4.90;99.90;;;;;;5049578;28;20106;-86
2023/02/02 01:13:29;;;;;;;0.60;0.60;;;4.60;99.90;;;;;;5052115;28;20351;-85
2023/02/02 01:15:56;;;;;;;1.48;1.40;;;5.10;99.90;;;;;;5047262;28;20048;-86
2023/02/02 01:18:23;;;;;;;0.60;0.60;;;4.70;99.90;;;;;;5042631;28;20037;-86
2023/02/02 01:20:59;;;;;;;0.50;0.50;;;4.70;99.90;;;;;;5035643;28;20075;-86
2023/02/02 01:23:26;;;;;;;0.60;0.60;;;5.70;99.90;;;;;;5045637;28;20036;-84
2023/02/02 01:25:56;;;;;;;0.60;0.60;;;4.90;99.90;;;;;;5050780;28;20049;-85
2023/02/02 01:28:22;;;;;;;0.50;0.50;;;4.80;99.90;;;;;;5052239;28;20045;-85
2023/02/02 01:30:48;;;;;;;1.42;1.35;;;4.90;99.90;;;;;;5046413;28;20119;-86
2023/02/02 01:33:16;;;;;;;0.50;0.50;;;4.80;99.90;;;;;;5046210;28;20061;-87
2023/02/02 01:35:46;;;;;;;0.43;0.43;;;4.90;99.90;;;;;;5043630;28;20870;-84
2023/02/02 01:38:12;;;;;;;0.50;0.50;;;4.80;99.90;;;;;;5048560;28;20055;-88
2023/02/02 01:41:06;;;;;;;0.50;0.50;;;4.80;99.90;;;;;;5052194;28;20041;-85
2023/02/02 01:43:40;;;;;;;0.50;0.50;;;4.80;99.90;;;;;;5039405;28;20045;-87
2023/02/02 01:46:13;;;;;;;1.50;1.50;;;4.90;99.90;;;;;;5031966;28;20040;-87
2023/02/02 01:48:42;;;;;;;0.70;0.70;;;4.90;99.90;;;;;;5040385;28;20086;-85
2023/02/02 01:51:12;;;;;;;0.60;0.60;;;4.90;99.90;;;;;;5048603;28;20478;-85
2023/02/02 01:53:39;;;;;;;0.55;0.55;;;4.90;99.90;;;;;;5041619;28;20041;-88
2023/02/02 01:56:07;;;;;;;0.60;0.60;;;4.80;99.90;;;;;;5033770;28;20051;-87
2023/02/02 01:58:36;;;;;;;0.60;0.60;;;4.80;99.90;;;;;;5053043;28;20556;-85
2023/02/02 02:01:03;;;;;;;0.68;0.68;;;4.80;99.90;;;;;;5040352;28;20049;-85
2023/02/02 02:03:32;;;;;;;0.70;0.70;;;4.70;99.90;;;;;;5046444;28;20226;-88
2023/02/02 02:06:08;;;;;;;1.70;1.60;;;4.70;99.90;;;;;;5049888;28;20037;-88
2023/02/02 02:08:51;;;;;;;0.60;0.60;;;4.70;99.90;;;;;;5052257;28;20107;-87
2023/02/02 02:11:18;;;;;;;0.65;0.65;;;4.70;99.90;;;;;;5046397;28;20061;-88
2023/02/02 02:16:53;;;;;;;0.57;0.57;;;4.80;99.90;;;;;;5040538;28;20120;-90
2023/02/02 02:19:24;;;;;;;2.72;1.55;;;4.80;99.90;;;;;;5039936;28;20033;-87
2023/02/02 02:28:10;;;;;;;0.63;0.63;;;4.80;99.90;;;;;;5050706;28;20851;-85
2023/02/02 02:31:01;;;;;;;0.60;0.60;;;4.70;99.90;;;;;;5053069;28;20091;-86
2023/02/02 02:33:55;;;;;;;0.65;0.65;;;4.60;99.90;;;;;;5041607;28;20048;-86
2023/02/02 02:36:59;;;;;;;0.50;0.50;;;4.70;99.90;;;;;;5042509;28;20070;-88
2023/02/02 02:39:34;;;;;;;0.60;0.60;;;4.70;99.90;;;;;;5034499;28;20033;-88
2023/02/02 02:42:08;;;;;;;0.50;0.50;;;4.70;99.90;;;;;;5040103;28;20114;-88
2023/02/02 02:44:35;;;;;;;0.52;0.52;;;4.70;99.90;;;;;;5045933;28;20052;-86
2023/02/02 02:47:01;;;;;;;0.60;0.60;;;4.90;99.90;;;;;;5047085;28;20056;-84
2023/02/02 02:49:27;;;;;;;1.02;1.02;;;4.80;99.90;;;;;;5051486;28;20041;-85
2023/02/02 02:51:54;;;;;;;0.73;0.73;;;5.30;99.90;;;;;;5059089;28;20048;-86
2023/02/02 02:54:28;;;;;;;0.65;0.65;;;5.20;99.90;;;;;;5050141;28;20041;-85
2023/02/02 02:57:03;;;;;;;0.60;0.60;;;5.00;99.90;;;;;;5048265;28;20056;-86
2023/02/02 02:59:35;;;;;;;0.60;0.60;;;5.00;99.90;;;;;;5051036;28;20447;-88
2023/02/02 03:02:25;;;;;;;0.68;0.68;;;5.00;99.90;;;;;;5045757;28;20387;-87
2023/02/02 03:05:16;;;;;;;3.90;3.38;;;5.10;99.90;;;;;;5050720;28;20041;-86
2023/02/02 03:08:17;;;;;;;1.48;1.38;;;5.10;99.90;;;;;;5046987;28;20067;-86
2023/02/02 03:10:45;;;;;;;0.50;0.50;;;5.20;99.90;;;;;;5030015;28;20065;-86
2023/02/02 03:13:13;;;;;;;1.83;1.80;;;5.30;99.90;;;;;;5045427;28;20033;-86
2023/02/02 03:15:44;;;;;;;0.52;0.52;;;5.40;99.90;;;;;;5047805;28;20049;-84
2023/02/02 03:18:16;;;;;;;0.80;0.80;;;5.50;99.90;;;;;;5038943;28;20052;-89
2023/02/02 03:20:45;;;;;;;0.60;0.60;;;5.50;99.90;;;;;;5048379;28;20116;-87
2023/02/02 03:23:11;;;;;;;0.60;0.60;;;5.50;99.90;;;;;;5035481;28;20040;-88
2023/02/02 03:25:37;;;;;;;;;;;5.60;99.90;;;;;;5029419;28;20045;-86
2023/02/02 03:28:03;;;;;;;0.50;0.50;;;5.60;99.90;;;;;;5071060;28;20066;-88
2023/02/02 03:30:30;;;;;;;0.60;0.60;;;5.60;99.90;;;;;;5032474;28;20155;-86
2023/02/02 03:32:55;;;;;;;0.70;0.70;;;5.70;99.90;;;;;;5047969;28;20063;-88
2023/02/02 03:35:21;;;;;;;3.13;2.60;;;5.60;99.90;;;;;;5042883;28;20040;-88
2023/02/02 03:37:47;;;;;;;0.70;0.70;;;5.70;99.90;;;;;;5026699;28;20045;-88
2023/02/02 03:40:13;;;;;;;0.50;0.50;;;5.70;99.90;;;;;;5025650;28;20120;-87
2023/02/02 03:42:39;;;;;;;;;;;5.70;99.90;;;;;;5047226;28;20057;-86
2023/02/02 03:45:05;;;;;;;0.40;0.40;;;5.70;99.90;;;;;;5033468;28;19917;-85
2023/02/02 03:47:31;;;;;;;0.60;0.60;;;5.70;99.90;;;;;;5047899;28;20061;-87
2023/02/02 03:49:57;;;;;;;0.85;0.85;;;5.70;99.90;;;;;;5033352;28;20039;-88
2023/02/02 03:52:23;;;;;;;0.60;0.60;;;5.70;99.90;;;;;;5030223;28;20052;-88
2023/02/02 03:54:50;;;;;;;0.80;0.80;;;5.80;99.90;;;;;;5038882;28;20045;-86
2023/02/02 03:57:15;;;;;;;0.50;0.50;;;5.80;99.90;;;;;;5041726;28;20431;-89
2023/02/02 03:59:41;;;;;;;0.60;0.60;;;5.80;99.90;;;;;;5048791;28;20029;-89
2023/02/02 04:02:07;;;;;;;0.60;0.60;;;5.90;99.90;;;;;;5022206;28;20038;-87
2023/02/02 04:04:33;;;;;;;0.70;0.70;;;5.80;99.90;;;;;;5042335;28;20114;-85
2023/02/02 04:07:00;;;;;;;0.70;0.70;;;5.80;99.90;;;;;;5030906;28;20045;-85
2023/02/02 04:09:26;;;;;;;0.50;0.50;;;5.90;99.90;;;;;;5032864;28;20041;-85
2023/02/02 04:11:52;;;;;;;1.13;1.13;;;5.80;99.90;;;;;;5041217;28;20041;-89
2023/02/02 04:14:18;;;;;;;0.63;0.63;;;5.80;99.90;;;;;;5030196;28;20799;-85
2023/02/02 04:16:43;;;;;;;0.57;0.57;;;5.80;99.90;;;;;;5014185;28;20107;-85
2023/02/02 04:19:11;;;;;;;0.50;0.50;;;5.70;99.90;;;;;;5047816;28;20131;-85
2023/02/02 04:21:37;;;;;;;0.60;0.60;;;5.80;99.90;;;;;;5051287;28;20045;-87
2023/02/02 04:24:04;;;;;;;0.60;0.60;;;5.80;99.90;;;;;;5033739;28;20123;-89
2023/02/02 04:26:30;;;;;;;0.60;0.60;;;5.60;99.90;;;;;;5049931;28;20033;-88
2023/02/02 04:28:56;;;;;;;0.65;0.65;;;5.50;99.90;;;;;;5045594;28;20037;-85
2023/02/02 04:31:22;;;;;;;0.47;0.47;;;5.50;99.90;;;;;;5046654;28;20116;-85
2023/02/02 04:33:47;;;;;;;0.50;0.50;;;5.50;99.90;;;;;;5044621;28;20033;-87
2023/02/02 04:36:13;;;;;;;0.60;0.60;;;5.50;99.90;;;;;;5028269;28;20505;-88
2023/02/02 04:38:39;;;;;;;0.50;0.50;;;5.50;99.90;;;;;;5029421;28;20132;-84
2023/02/02 04:41:09;;;;;;;0.55;0.55;;;5.70;99.90;;;;;;5028807;28;20486;-85
2023/02/02 04:43:36;;;;;;;0.63;0.63;;;5.50;99.90;;;;;;5047280;28;20037;-85
2023/02/02 04:46:02;;;;;;;0.68;0.68;;;5.70;99.90;;;;;;5038563;28;20120;-86
2023/02/02 04:48:29;;;;;;;0.60;0.60;;;5.50;99.90;;;;;;5045984;28;20043;-85
2023/02/02 04:50:59;;;;;;;0.65;0.65;;;5.50;99.90;;;;;;5067828;28;20525;-85
2023/02/02 04:53:25;;;;;;;0.75;0.75;;;5.50;99.90;;;;;;5049549;28;20130;-85
2023/02/02 04:55:50;;;;;;;0.60;0.60;;;5.50;99.90;;;;;;5052595;28;20099;-86
2023/02/02 04:58:16;;;;;;;0.63;0.63;;;5.40;99.90;;;;;;5047821;28;20033;-87
2023/02/02 05:00:42;;;;;;;0.63;0.63;;;5.40;99.90;;;;;;5049205;28;20037;-86
2023/02/02 05:03:07;;;;;;;1.27;1.15;;;5.40;99.90;;;;;;5053306;28;20159;-87
2023/02/02 05:05:33;;;;;;;0.60;0.60;;;5.40;99.90;;;;;;5030645;28;20044;-87
2023/02/02 05:07:59;;;;;;;0.95;0.95;;;5.40;99.90;;;;;;5050511;28;20874;-84
2023/02/02 05:10:25;;;;;;;0.50;0.50;;;5.30;99.90;;;;;;5033051;28;20036;-85
2023/02/02 05:12:54;;;;;;;0.52;0.52;;;5.40;99.90;;;;;;5034130;28;20048;-84
2023/02/02 05:15:21;;;;;;;0.50;0.50;;;5.30;99.90;;;;;;5052142;28;20044;-87
2023/02/02 05:17:47;;;;;;;0.50;0.50;;;5.20;99.90;;;;;;5044591;28;20045;-87
2023/02/02 05:20:14;;;;;;;0.47;0.47;;;5.10;99.90;;;;;;5051257;28;20128;-86
2023/02/02 05:22:40;;;;;;;0.70;0.70;;;5.20;99.90;;;;;;5046222;28;20068;-85
2023/02/02 05:25:07;;;;;;;1.20;1.02;;;5.30;99.90;;;;;;5014709;28;20103;-87
2023/02/02 05:27:33;;;;;;;0.77;0.77;;;5.10;99.90;;;;;;5052233;28;20128;-86
2023/02/02 05:29:59;;;;;;;0.47;0.47;;;5.50;99.90;;;;;;5033776;28;20052;-86
2023/02/02 05:32:26;;;;;;;0.60;0.60;;;5.10;99.90;;;;;;5038884;28;20041;-87
2023/02/02 05:34:52;;;;;;;0.68;0.68;;;5.10;99.90;;;;;;5046991;28;20045;-85
2023/02/02 05:37:18;;;;;;;0.50;0.50;;;5.10;99.90;;;;;;5049451;28;20052;-85
2023/02/02 05:39:43;;;;;;;0.50;0.50;;;5.10;99.90;;;;;;5050168;28;20116;-87
2023/02/02 05:42:09;;;;;;;0.50;0.50;;;5.10;99.90;;;;;;5050914;28;20490;-85
2023/02/02 05:44:35;;;;;;;0.60;0.60;;;5.10;99.90;;;;;;5051799;28;20049;-85
2023/02/02 05:47:00;;;;;;;0.50;0.50;;;5.10;99.90;;;;;;5035246;28;20119;-88
2023/02/02 05:49:26;;;;;;;0.70;0.70;;;5.10;99.90;;;;;;5044471;28;20091;-87
2023/02/02 05:51:56;;;;;;;0.50;0.50;;;5.10;99.90;;;;;;5060894;28;20045;-85
2023/02/02 05:54:22;;;;;;;0.60;0.60;;;5.10;99.90;;;;;;5053630;28;20041;-85
2023/02/02 05:56:49;;;;;;;;;;;5.00;99.90;;;;;;5056203;28;20072;-87
2023/02/02 05:59:16;;;;;;;0.52;0.52;;;5.00;99.90;;;;;;5050756;28;19925;-86
2023/02/02 06:01:42;;;;;;;0.63;0.63;;;5.00;99.90;;;;;;5046009;28;20482;-87
2023/02/02 06:04:08;;;;;;;0.60;0.60;;;5.00;99.90;;;;;;5038373;28;20051;-86
2023/02/02 06:06:34;;;;;;;0.40;0.40;;;5.00;99.90;;;;;;5061251;28;20044;-89
2023/02/02 06:09:00;;;;;;;;;;;5.20;99.90;;;;;;5033189;28;20074;-85
2023/02/02 06:11:26;;;;;;;0.60;0.60;;;5.00;99.90;;;;;;5052361;28;19923;-87
2023/02/02 06:13:51;;;;;;;0.60;0.60;;;5.00;99.90;;;;;;5056411;28;20041;-86
2023/02/02 06:16:17;;;;;;;0.50;0.50;;;5.00;99.90;;;;;;5033919;28;20042;-85
2023/02/02 06:18:44;;;;;;;0.70;0.70;;;5.00;99.90;;;;;;5057968;28;20083;-88
2023/02/02 06:21:10;;;;;;;0.50;0.50;;;5.00;99.90;;;;;;5052650;28;20037;-86
2023/02/02 06:23:35;;;;;;;1.33;1.25;;;5.10;99.90;;;;;;5035217;28;20060;-86
2023/02/02 06:26:02;;;;;;;0.50;0.50;;;5.10;99.90;;;;;;5052849;28;20039;-89
2023/02/02 06:28:29;;;;;;;0.55;0.55;;;4.90;99.90;;;;;;5034149;28;20474;-87
2023/02/02 06:30:55;;;;;;;0.50;0.50;;;5.20;99.90;;;;;;5044342;28;20044;-89
2023/02/02 06:33:21;;;;;;;0.60;0.60;;;4.90;99.90;;;;;;5035277;28;20100;-87
2023/02/02 06:35:46;;;;;;;0.70;0.70;;;5.20;99.90;;;;;;5038233;28;20075;-88
2023/02/02 06:38:12;;;;;;;0.55;0.55;;;4.90;99.90;;;;;;5052752;28;20041;-87
2023/02/02 06:40:38;;;;;;;5.10;0.90;;;4.90;99.90;;;;;;5024615;28;20032;-88
2023/02/02 06:43:03;;;;;;;0.57;0.57;;;4.90;99.90;;;;;;5027965;28;20120;-89
2023/02/02 06:45:30;;;;;;;0.50;0.50;;;5.10;99.90;;;;;;5046299;28;20033;-86
2023/02/02 06:48:02;;;;;;;0.40;0.40;;;5.30;99.90;;;;;;5054532;28;20368;-85
2023/02/02 06:50:28;;;;;;;0.60;0.60;;;4.90;99.90;;;;;;5042881;28;20393;-85
2023/02/02 06:52:54;;;;;;;;;;;5.20;99.90;;;;;;5051988;28;20118;-88
2023/02/02 06:55:23;;;;;;;0.55;0.55;;;4.90;99.90;;;;;;5050483;28;19917;-85
2023/02/02 06:57:56;;;;;;;0.40;0.40;;;5.50;99.90;;;;;;5035861;28;20041;-86
2023/02/02 07:00:22;;;;;;;0.50;0.50;;;5.30;99.90;;;;;;5041377;28;20048;-84
2023/02/02 07:02:47;;;;;;;0.52;0.52;;;4.90;99.90;;;;;;5016778;28;20045;-85
2023/02/02 07:05:13;;;;;;;0.50;0.50;;;4.90;99.90;;;;;;5022358;28;20049;-86
2023/02/02 07:07:39;;;;;;;0.85;0.85;;;4.90;99.90;;;;;;5048366;28;20075;-87
2023/02/02 07:10:05;;;;;;;0.60;0.60;;;5.00;99.90;;;;;;5017974;28;20041;-86
2023/02/02 07:12:31;;;;;;;0.50;0.50;;;4.90;99.90;;;;;;5025987;28;20127;-86
2023/02/02 07:14:58;;;;;;;0.70;0.70;;;4.90;99.90;;;;;;5023865;28;20139;-85
2023/02/02 07:17:24;;;;;;;0.50;0.50;;;4.80;99.90;;;;;;5042824;28;20075;-86
2023/02/02 07:19:49;;;;;;;0.57;0.57;;;5.50;99.90;;;;;;5049437;28;20072;-86
2023/02/02 07:22:15;;;;;;;0.63;0.63;;;4.90;99.90;;;;;;5046457;28;20039;-87
2023/02/02 07:24:41;;;;;;;0.60;0.60;;;5.50;99.90;;;;;;5027257;28;20041;-86
2023/02/02 07:27:07;;;;;;;0.60;0.60;;;5.10;99.90;;;;;;5042481;28;20066;-87
2023/02/02 07:29:32;;;;;;;0.60;0.60;;;5.00;99.90;;;;;;5025430;28;20076;-87
2023/02/02 07:31:58;;;;;;;0.60;0.60;;;4.90;99.90;;;;;;5041449;28;20048;-87
2023/02/02 07:34:24;;;;;;;0.60;0.60;;;5.10;99.90;;;;;;5046957;28;20047;-89
2023/02/02 07:36:50;;;;;;;0.60;0.60;;;5.00;99.90;;;;;;5044452;28;20037;-86
2023/02/02 07:39:16;;;;;;;0.75;0.75;;;5.00;99.90;;;;;;5042603;28;20078;-87
2023/02/02 07:41:42;;;;;;;0.60;0.60;;;5.10;99.90;;;;;;5030959;28;20085;-88
2023/02/02 07:44:15;;;;;;;0.60;0.60;;;5.10;99.90;;;;;;5028460;28;20049;-90
2023/02/02 07:46:46;;;;;;;0.70;0.70;;;4.90;99.90;;;;;;5033683;28;20044;-88
2023/02/02 07:49:14;;;;;;;0.65;0.65;;;5.10;99.90;;;;;;5047499;28;20037;-88
2023/02/02 07:51:40;;;;;;;0.60;0.60;;;5.50;99.90;;;;;;5046172;28;20552;-88
2023/02/02 07:54:06;;;;;;;0.60;0.60;;;5.00;99.90;;;;;;5035537;28;20029;-87
2023/02/02 07:56:32;;;;;;;0.85;0.85;;;5.00;99.90;;;;;;5014479;28;20041;-87
2023/02/02 07:58:58;;;;;;;1.83;1.73;;;5.10;99.90;;;;;;5027027;28;20037;-87
2023/02/02 08:01:25;;;;;;;0.60;0.60;;;5.30;99.90;;;;;;5027329;28;20040;-87
2023/02/02 08:03:53;;;;;;;0.55;0.55;;;5.00;99.90;;;;;;5041940;28;20483;-88
2023/02/02 08:06:27;;;;;;;0.50;0.50;;;5.10;99.90;;;;;;5017114;28;20041;-88
2023/02/02 08:08:53;;;;;;;0.68;0.68;;;5.10;99.90;;;;;;5056911;28;20044;-88
2023/02/02 08:11:20;;;;;;;0.55;0.55;;;5.10;99.90;;;;;;5035560;28;20056;-91
2023/02/02 08:13:55;;;;;;;0.52;0.52;;;5.20;99.90;;;;;;5032236;28;20163;-87
2023/02/02 08:16:21;;;;;;;0.60;0.60;;;5.60;99.90;;;;;;5032931;28;20466;-86
2023/02/02 08:18:48;;;;;;;0.50;0.50;;;5.20;99.90;;;;;;5050740;28;20124;-87
2023/02/02 08:21:13;;;;;;;;;;;5.20;99.90;;;;;;5036434;28;20040;-87
2023/02/02 08:23:40;;;;;;;0.50;0.50;;;5.20;99.90;;;;;;5054212;28;19966;-86
2023/02/02 08:26:12;;;;;;;0.60;0.60;;;5.20;99.90;;;;;;5036448;28;20188;-86
2023/02/02 08:28:39;;;;;;;0.60;0.60;;;5.20;99.90;;;;;;5048694;28;20046;-86
2023/02/02 08:31:12;;;;;;;0.50;0.50;;;5.20;99.90;;;;;;5052355;28;20060;-87
2023/02/02 08:33:38;;;;;;;0.57;0.57;;;5.20;99.90;;;;;;5054406;28;20041;-85
2023/02/02 08:36:07;;;;;;;0.50;0.50;;;5.30;99.90;;;;;;5033122;28;20057;-85
2023/02/02 08:38:32;;;;;;;1.42;1.42;;;5.30;99.90;;;;;;5018311;28;20041;-85
2023/02/02 08:41:04;;;;;;;0.70;0.70;;;5.30;99.90;;;;;;5057530;28;20052;-88
2023/02/02 08:43:30;;;;;;;0.60;0.60;;;5.30;99.90;;;;;;5048647;28;20048;-88
2023/02/02 08:45:56;;;;;;;0.60;0.60;;;5.50;99.90;;;;;;5014385;28;20045;-87
2023/02/02 08:48:22;;;;;;;0.60;0.60;;;5.30;99.90;;;;;;5055709;28;20029;-88
2023/02/02 08:50:55;;;;;;;0.50;0.50;;;5.30;99.90;;;;;;5021820;28;20048;-87
2023/02/02 08:53:21;;;;;;;0.52;0.52;;;5.30;99.90;;;;;;5045605;28;20036;-87
2023/02/02 08:55:47;;;;;;;0.60;0.60;;;5.40;99.90;;;;;;5041608;28;20709;-85
2023/02/02 08:58:13;;;;;;;;;;;5.50;99.90;;;;;;5061155;28;20395;-89
2023/02/02 09:00:39;;;;;;;0.52;0.52;;;5.40;99.90;;;;;;5036733;28;19928;-88
2023/02/02 09:03:05;;;;;;;;;;;5.50;99.90;;;;;;5036564;28;20044;-87
2023/02/02 09:05:31;;;;;;;0.60;0.60;;;5.60;99.90;;;;;;5055159;28;19921;-88
2023/02/02 09:07:57;;;;;;;0.68;0.68;;;5.60;99.90;;;;;;5057143;28;20036;-88
2023/02/02 09:10:22;;;;;;;0.60;0.60;;;5.60;99.90;;;;;;5044923;28;20047;-88
2023/02/02 09:12:48;;;;;;;0.60;0.60;;;5.60;99.90;;;;;;5056002;28;20039;-89
2023/02/02 09:15:14;;;;;;;0.57;0.57;;;5.60;99.90;;;;;;5036723;28;20073;-89
2023/02/02 09:17:39;;;;;;;0.60;0.60;;;5.70;99.90;;;;;;5033993;28;20453;-88
2023/02/02 09:20:06;;;;;;;0.60;0.60;;;5.80;99.90;;;;;;5054288;28;20036;-88
2023/02/02 09:22:32;;;;;;;;;;;5.80;99.90;;;;;;5035904;28;20052;-89
2023/02/02 09:24:57;;;;;;;0.65;0.65;;;5.80;99.90;;;;;;5036075;28;19917;-88
2023/02/02 09:27:23;;;;;;;0.63;0.63;;;5.80;99.90;;;;;;5024280;28;20038;-88
2023/02/02 09:29:49;;;;;;;0.40;0.40;;;5.90;99.90;;;;;;5053425;28;20474;-90
2023/02/02 09:32:14;;;;;;;0.65;0.65;;;6.00;99.90;;;;;;5055336;28;20456;-88
2023/02/02 09:34:40;;;;;;;0.60;0.60;;;6.00;99.90;;;;;;5020237;28;20792;-90
2023/02/02 09:37:06;;;;;;;0.60;0.60;;;6.00;99.90;;;;;;5032914;28;20132;-88
2023/02/02 09:39:31;;;;;;;0.68;0.68;;;6.00;99.90;;;;;;5034777;28;20403;-88
2023/02/02 09:42:07;;;;;;;0.57;0.57;;;6.00;99.90;;;;;;5059092;28;20057;-88
2023/02/02 09:45:00;;;;;;;0.90;0.90;;;6.00;99.90;;;;;;5056267;28;20128;-89
2023/02/02 09:47:32;;;;;;;0.50;0.50;;;6.10;99.90;;;;;;5047701;28;20190;-87
2023/02/02 09:50:03;;;;;;;0.50;0.50;;;6.10;99.90;;;;;;5026541;28;20074;-88
2023/02/02 09:52:45;;;;;;;0.68;0.68;;;6.10;99.90;;;;;;5054865;28;20044;-88
2023/02/02 09:55:37;;;;;;;0.40;0.40;;;6.20;99.90;;;;;;5033175;28;20037;-88
2023/02/02 09:58:19;;;;;;;0.50;0.50;;;6.20;99.90;;;;;;5036038;28;20045;-87
2023/02/02 10:01:12;;;;;;;0.50;0.50;;;6.30;99.90;;;;;;5053065;28;20029;-87
2023/02/02 10:04:03;;;;;;;0.60;0.60;;;6.30;99.90;;;;;;5026799;28;20048;-88
2023/02/02 10:06:43;;;;;;;0.52;0.52;;;6.30;99.90;;;;;;5053784;28;20479;-89
2023/02/02 10:09:22;;;;;;;0.60;0.60;;;6.40;99.90;;;;;;5059588;28;20833;-87
2023/02/02 10:11:57;;;;;;;0.95;0.93;;;6.40;99.90;;;;;;5054254;28;20099;-89
2023/02/02 10:14:49;;;;;;;0.50;0.50;;;6.40;99.90;;;;;;5032717;28;20051;-89
2023/02/02 10:17:21;;;;;;;0.47;0.47;;;6.40;99.90;;;;;;5047203;28;20052;-89
2023/02/02 10:19:52;;;;;;;0.50;0.50;;;6.40;99.90;;;;;;5044635;28;20069;-87
2023/02/02 10:22:24;;;;;;;0.68;0.68;;;6.50;99.90;;;;;;5044001;28;20112;-87
2023/02/02 10:24:50;;;;;;;0.45;0.45;;;6.50;99.90;;;;;;5037098;28;20045;-88
2023/02/02 10:27:26;;;;;;;0.63;0.63;;;6.40;99.90;;;;;;5052833;28;20040;-87
2023/02/02 10:30:00;;;;;;;0.50;0.50;;;6.60;99.90;;;;;;5048978;28;20137;-87
2023/02/02 10:32:40;;;;;;;0.45;0.45;;;6.50;99.90;;;;;;5044165;28;20386;-87
2023/02/02 10:35:30;;;;;;;0.50;0.50;;;6.50;99.90;;;;;;5035670;28;20040;-89
2023/02/02 10:38:15;;;;;;;0.60;0.60;;;6.50;99.90;;;;;;5050870;28;20128;-88
2023/02/02 10:41:36;;;;;;;0.50;0.50;;;6.50;99.90;;;;;;5032200;28;20071;-86
2023/02/02 10:44:20;;;;;;;0.47;0.47;;;6.50;99.90;;;;;;5012258;28;20041;-87
2023/02/02 10:46:50;;;;;;;0.50;0.50;;;6.60;99.90;;;;;;5010464;28;20555;-90
2023/02/02 10:49:24;;;;;;;0.52;0.52;;;6.60;99.90;;;;;;5036031;28;20045;-87
2023/02/02 10:52:15;;;;;;;0.50;0.50;;;6.50;99.90;;;;;;5034290;28;20517;-87
2023/02/02 10:55:03;;;;;;;0.50;0.50;;;6.50;99.90;;;;;;5032755;28;20103;-87
2023/02/02 10:57:37;;;;;;;;;;;6.40;99.90;;;;;;5051835;28;20037;-88
2023/02/02 11:00:20;;;;;;;0.50;0.50;;;6.40;99.90;;;;;;5031811;28;19916;-88
2023/02/02 11:02:50;;;;;;;0.50;0.50;;;6.50;99.90;;;;;;5052728;28;20694;-87
2023/02/02 11:08:20;;;;;;;0.60;0.60;;;6.50;99.90;;;;;;5046949;28;20049;-87
2023/02/02 11:10:51;;;;;;;0.50;0.50;;;6.40;99.90;;;;;;5048503;28;20083;-86
2023/02/02 11:13:45;;;;;;;0.50;0.50;;;6.50;99.90;;;;;;5053188;28;20048;-85
2023/02/02 11:16:13;;;;;;;0.60;0.60;;;6.40;99.90;;;;;;5058677;28;20075;-85
2023/02/02 11:18:40;;;;;;;0.50;0.50;;;6.30;99.90;;;;;;5060103;28;20037;-87
2023/02/02 11:21:33;;;;;;;0.45;0.45;;;6.60;99.90;;;;;;5034394;28;20546;-87
2023/02/02 11:24:26;;;;;;;0.50;0.50;;;6.50;99.90;;;;;;5042340;28;20049;-84
2023/02/02 11:26:55;;;;;;;0.60;0.60;;;6.50;99.90;;;;;;5030321;28;20102;-86
2023/02/02 11:29:43;;;;;;;0.40;0.40;;;6.50;99.90;;;;;;5044587;28;20033;-85
2023/02/02 11:32:34;;;;;;;0.50;0.50;;;6.60;99.90;;;;;;5044468;28;20049;-86
2023/02/02 11:35:03;;;;;;;0.50;0.50;;;6.60;99.90;;;;;;5056335;28;20100;-86
2023/02/02 11:37:30;;;;;;;0.60;0.60;;;6.50;99.90;;;;;;5026670;28;20120;-85
2023/02/02 11:40:26;;;;;;;0.52;0.52;;;6.60;99.90;;;;;;5045249;28;20056;-86
2023/02/02 11:42:54;;;;;;;0.55;0.55;;;6.50;99.90;;;;;;5028358;28;20045;-87
2023/02/02 11:45:32;;;;;;;0.60;0.60;;;6.60;99.90;;;;;;5034219;28;20130;-87
2023/02/02 11:48:13;;;;;;;0.50;0.50;;;6.60;99.90;;;;;;5049267;28;20048;-84
2023/02/02 11:50:45;;;;;;;0.50;0.50;;;6.60;99.90;;;;;;5037439;28;20081;-86
2023/02/02 11:53:44;;;;;;;0.60;0.60;;;6.60;99.90;;;;;;5048465;28;20040;-85
2023/02/02 11:56:20;;;;;;;0.60;0.60;;;6.70;99.90;;;;;;5044986;28;20037;-86
2023/02/02 11:58:51;;;;;;;0.60;0.60;;;6.70;99.90;;;;;;5046837;28;20041;-85
2023/02/02 12:01:24;;;;;;;0.50;0.50;;;6.60;99.90;;;;;;5051287;28;20048;-86
2023/02/02 12:03:53;;;;;;;0.40;0.40;;;6.60;99.90;;;;;;5026058;28;20041;-85
2023/02/02 12:06:21;;;;;;;0.50;0.50;;;6.60;99.90;;;;;;5048840;28;20052;-86
2023/02/02 12:08:48;;;;;;;0.50;0.50;;;6.70;99.90;;;;;;5043843;28;20116;-86
2023/02/02 12:11:29;;;;;;;0.60;0.60;;;6.60;99.90;;;;;;5050007;28;20041;-84
2023/02/02 12:14:05;;;;;;;0.60;0.60;;;6.60;99.90;;;;;;5050334;28;20033;-84
2023/02/02 12:16:53;;;;;;;0.50;0.50;;;6.60;99.90;;;;;;5043954;28;20056;-86
2023/02/02 12:19:36;;;;;;;0.50;0.50;;;6.60;99.90;;;;;;5037597;28;20057;-84
2023/02/02 12:22:16;;;;;;;0.50;0.50;;;6.70;99.90;;;;;;5034737;28;20045;-83
2023/02/02 12:24:48;;;;;;;0.50;0.50;;;6.70;99.90;;;;;;5045194;28;20047;-84
2023/02/02 12:27:29;;;;;;;0.45;0.45;;;6.70;99.90;;;;;;5040163;28;20084;-85
2023/02/02 12:30:07;;;;;;;0.60;0.60;;;6.70;99.90;;;;;;5041406;28;20095;-83
2023/02/02 12:32:48;;;;;;;0.57;0.57;;;6.80;99.90;;;;;;5039498;28;20040;-85
2023/02/02 12:35:35;;;;;;;0.50;0.50;;;6.90;99.90;;;;;;5049151;28;20041;-84
2023/02/02 12:38:23;;;;;;;0.45;0.45;;;7.00;99.90;;;;;;5044753;28;20072;-87
2023/02/02 12:41:08;;;;;;;0.50;0.50;;;6.90;99.90;;;;;;5048290;28;20550;-84
2023/02/02 12:43:50;;;;;;;0.45;0.45;;;6.90;99.90;;;;;;5039103;28;20048;-86
2023/02/02 12:46:41;;;;;;;0.40;0.40;;;6.90;99.90;;;;;;5043774;28;20060;-85
2023/02/02 12:49:12;;;;;;;0.50;0.50;;;6.90;99.90;;;;;;5039891;28;20048;-84
2023/02/02 12:51:57;;;;;;;0.38;0.38;;;6.90;99.90;;;;;;5043590;28;20622;-86
2023/02/02 12:55:22;;;;;;;0.40;0.40;;;6.90;99.90;;;;;;5044804;28;20041;-85
2023/02/02 12:58:32;;;;;;;0.50;0.50;;;7.00;99.90;;;;;;5026427;28;20053;-85
2023/02/02 13:01:14;;;;;;;0.60;0.60;;;7.00;99.90;;;;;;5024610;28;20052;-85
2023/02/02 13:03:39;;;;;;;0.50;0.50;;;7.00;99.90;;;;;;5043782;28;20880;-86
2023/02/02 13:06:48;;;;;;;0.50;0.50;;;6.90;99.90;;;;;;5043838;28;20124;-85
2023/02/02 13:09:28;;;;;;;0.60;0.60;;;6.90;99.90;;;;;;5012871;28;20041;-86
2023/02/02 13:11:57;;;;;;;0.40;0.40;;;6.80;99.90;;;;;;5051107;28;20501;-84
2023/02/02 13:14:28;;;;;;;0.50;0.50;;;6.70;99.90;;;;;;5035703;28;20032;-83
2023/02/02 13:16:59;;;;;;;0.50;0.50;;;6.70;99.90;;;;;;5044819;28;20047;-86
2023/02/02 13:19:30;;;;;;;0.35;0.35;;;6.70;99.90;;;;;;5060655;28;20454;-85
2023/02/02 13:21:58;;;;;;;0.60;0.60;;;6.70;99.90;;;;;;5053428;28;20120;-84
2023/02/02 13:24:29;;;;;;;0.50;0.50;;;6.80;99.90;;;;;;5052796;28;20091;-85
2023/02/02 13:26:58;;;;;;;0.50;0.50;;;6.80;99.90;;;;;;5053571;28;20120;-84
2023/02/02 13:29:46;;;;;;;0.50;0.50;;;6.70;99.90;;;;;;5036089;28;20382;-85
2023/02/02 13:32:33;;;;;;;0.40;0.40;;;6.80;99.90;;;;;;5032154;28;20060;-86
2023/02/02 13:35:19;;;;;;;;;;;6.70;99.90;;;;;;5045868;28;20377;-86
2023/02/02 13:37:53;;;;;;;0.57;0.57;;;6.80;99.90;;;;;;5061045;28;20375;-85